Stations météo

réclame
Mon MeteoGroup
Stekenjokk, Suède (2102): Température de l'air & dewpoint: 19.05.2018 12:00:00 - 25.05.2018 12:00:00 (CEST)Stekenjokk, Suède (2102): Vitesse du vent & gusts: 19.05.2018 12:00:00 - 25.05.2018 12:00:00 (CEST)Stekenjokk, Suède (2102): Direction du vent: 19.05.2018 12:00:00 - 25.05.2018 12:00:00 (CEST)
Date & Time tt [°C] td [°C] ff [km/h] ff [knt] fx [km/h] fx [knt] dd
25.05.2018 12:00:00 9,3 -2,0 37 20 58 32 WSW
25.05.2018 11:00:00 8,3 -0,2 48 26 61 33 WSW
25.05.2018 10:00:00 8,1 0,8 57 31 65 35 SW
25.05.2018 09:00:00 6,7 1,2 32 17 43 23 WSW
25.05.2018 08:00:00 7,6 0,1 8 4 17 9 SW
25.05.2018 07:00:00 7,6 -0,4 8 5 22 12 SSE
25.05.2018 06:00:00 7,6 -1,4 4 2 16 9 SW
25.05.2018 05:00:00 6,7 -2,0 5 3 26 14 WSW
25.05.2018 04:00:00 7,3 -1,7 15 8 30 16 W
25.05.2018 03:00:00 7,1 -0,8 16 9 35 19 W
25.05.2018 02:00:00 7,4 -0,6 29 15 36 19 WSW
25.05.2018 01:00:00 6,6 -0,4 24 13 30 16 SW
25.05.2018 00:00:00 7,7 -0,8 19 10 22 12 SW
24.05.2018 23:00:00 8,6 -1,0 19 11 22 12 WSW
24.05.2018 22:00:00 9,3 -0,1 21 11 24 13 WSW
24.05.2018 21:00:00 9,8 0,1 22 12 24 13 WSW
24.05.2018 20:00:00 11,1 -0,7 19 10 26 14 W
24.05.2018 19:00:00 12,0 -0,5 19 10 22 12 W
24.05.2018 18:00:00 12,8 0,2 14 8 23 13 WSW
24.05.2018 17:00:00 12,6 -0,6 16 8 32 17 W
24.05.2018 16:00:00 11,9 -0,3 20 11 27 15 W
24.05.2018 15:00:00 11,9 0,6 22 12 37 20 WSW
24.05.2018 14:00:00 11,6 -0,6 24 13 29 15 WSW
24.05.2018 13:00:00 11,1 -1,0 16 9 26 14 SW
24.05.2018 12:00:00 10,1 -2,2 23 12 29 16 SSW
24.05.2018 11:00:00 9,2 -3,4 16 9 26 14 S
24.05.2018 10:00:00 8,3 -3,6 26 14 32 17 S
24.05.2018 09:00:00 7,9 -4,2 14 7 22 12 S
24.05.2018 08:00:00 7,1 -5,6 19 10 23 12 S
24.05.2018 07:00:00 5,3 -6,3 11 6 18 10 S
24.05.2018 06:00:00 3,7 -6,3 14 7 24 13 S
24.05.2018 05:00:00 3,8 -6,8 18 10 30 16 S
24.05.2018 04:00:00 3,6 -7,8 14 7 17 9 S
24.05.2018 03:00:00 2,8 -5,6 17 9 21 12 SE
24.05.2018 02:00:00 3,9 -5,1 14 8 16 9 SE
24.05.2018 01:00:00 4,2 -4,5 9 5 12 6 SE
24.05.2018 00:00:00 4,4 -4,9 8 5 11 6 ENE
23.05.2018 23:00:00 4,4 -4,9 8 5 14 7 NNE
23.05.2018 22:00:00 4,4 -4,1 9 5 12 7 NNW
23.05.2018 21:00:00 5,2 -4,1 6 3 12 6 W
23.05.2018 20:00:00 6,0 -3,1 10 5 17 9 WSW
23.05.2018 19:00:00 6,3 -3,6 13 7 20 11 WSW
23.05.2018 18:00:00 6,8 -4,6 15 8 24 13 SW
23.05.2018 17:00:00 6,8 -6,9 16 9 24 13 W
23.05.2018 16:00:00 6,9 -6,1 17 9 23 12 WSW
23.05.2018 15:00:00 5,8 -8,9 17 9 24 13 WSW
23.05.2018 14:00:00 5,1 -5,9 16 9 22 12 WSW
23.05.2018 13:00:00 5,1 -6,2 13 7 20 11 WSW
23.05.2018 12:00:00 4,8 -4,0 6 4 18 10 W
23.05.2018 11:00:00 3,5 -4,5 9 5 18 10 N
23.05.2018 10:00:00 2,4 -3,9 13 7 23 12 NNE
23.05.2018 09:00:00 1,3 -2,5 18 10 24 13 NNE
23.05.2018 08:00:00 0,3 -2,1 16 8 21 11 NNE
23.05.2018 07:00:00 -0,9 -2,2 15 8 22 12 NNE
23.05.2018 06:00:00 -1,7 -2,8 17 9 23 12 NNE
23.05.2018 05:00:00 -1,9 -3,3 17 9 22 12 N
23.05.2018 04:00:00 -2,5 -3,3 16 9 35 19 NNE
23.05.2018 03:00:00 -1,9 -3,2 26 14 37 20 N
23.05.2018 02:00:00 -1,7 -3,6 25 13 39 21 N
23.05.2018 01:00:00 -2,1 -3,7 23 13 41 22 NNW
23.05.2018 00:00:00 -1,6 -2,7 30 16 45 25 N
22.05.2018 23:00:00 -1,1 -3,3 37 20 48 26 N
22.05.2018 22:00:00 0,1 -3,1 30 16 46 25 N
22.05.2018 21:00:00 1,1 -2,1 36 19 49 26 N
22.05.2018 20:00:00 1,9 -0,7 40 22 52 28 N
22.05.2018 19:00:00 2,2 1,2 31 17 44 24 N
22.05.2018 18:00:00 1,5 1,5 33 18 45 24 NNW
22.05.2018 17:00:00 2,5 2,5 27 15 43 23 NW
22.05.2018 16:00:00 5,2 3,5 31 17 41 22 WNW
22.05.2018 15:00:00 7,0 3,4 26 14 45 25 W
22.05.2018 14:00:00 8,8 3,4 29 16 43 23 WNW
22.05.2018 13:00:00 9,0 3,0 23 12 34 18 W
22.05.2018 12:00:00 8,9 2,2 22 12 34 18 WNW
22.05.2018 11:00:00 9,2 2,7 21 11 28 15 W
22.05.2018 10:00:00 8,9 3,9 10 5 14 8 W
22.05.2018 09:00:00 9,2 4,0 4 2 10 6 W
22.05.2018 08:00:00 7,5 3,5 8 4 16 9 E
22.05.2018 07:00:00 6,7 3,3 11 6 20 11 E
22.05.2018 06:00:00 6,9 3,1 12 6 16 9 ENE
22.05.2018 05:00:00 5,8 3,0 10 6 16 9 NE
22.05.2018 04:00:00 6,3 2,6 14 8 17 9 NE
22.05.2018 03:00:00 6,0 3,0 15 8 18 10 ENE
22.05.2018 02:00:00 4,8 3,5 16 8 18 10 NE
22.05.2018 01:00:00 4,6 3,3 16 9 19 11 NNE
22.05.2018 00:00:00 4,5 3,3 18 10 22 12 N
21.05.2018 23:00:00 5,5 3,7 17 9 21 12 NNE
21.05.2018 22:00:00 6,0 3,7 13 7 17 9 NNE
21.05.2018 21:00:00 7,1 3,0 10 6 13 7 ENE
21.05.2018 20:00:00 7,2 2,7 6 4 9 5 NE
21.05.2018 19:00:00 7,0 3,1 5 3 16 9 NNE
21.05.2018 18:00:00 7,6 3,1 16 9 35 19 W
21.05.2018 17:00:00 7,3 3,9 29 16 40 21 W
21.05.2018 16:00:00 7,7 3,9 28 15 34 18 WSW
21.05.2018 15:00:00 7,3 4,3 23 12 35 19 W
21.05.2018 14:00:00 6,6 4,3 35 19 45 24 WSW
21.05.2018 13:00:00 5,5 4,0 45 25 61 33 WSW
21.05.2018 12:00:00 4,9 3,6 49 27 56 30 WSW
21.05.2018 11:00:00 4,8 3,6 39 21 45 24 WSW
21.05.2018 10:00:00 4,0 3,1 41 22 55 30 WSW
21.05.2018 09:00:00 4,4 3,4 46 25 55 30 WSW
21.05.2018 08:00:00 3,9 2,6 45 25 68 37 W
21.05.2018 07:00:00 3,3 2,1 43 23 63 34 WSW
21.05.2018 06:00:00 4,3 2,5 55 30 67 36 W
21.05.2018 05:00:00 3,5 2,2 29 16 58 31 W
21.05.2018 04:00:00 4,4 1,8 34 18 56 30 W
21.05.2018 03:00:00 4,3 1,3 30 16 39 21 W
21.05.2018 02:00:00 4,3 1,0 23 12 35 19 W
21.05.2018 01:00:00 4,7 0,8 27 15 33 18 W
21.05.2018 00:00:00 5,1 -0,5 21 11 24 13 WSW
20.05.2018 23:00:00 6,6 -1,1 24 13 31 17 WSW
20.05.2018 22:00:00 6,6 -0,6 21 11 41 22 SW
20.05.2018 21:00:00 7,3 0,7 21 11 49 27 WSW
20.05.2018 20:00:00 7,8 1,0 42 23 61 33 WSW
20.05.2018 19:00:00 6,9 0,1 45 24 60 33 W
20.05.2018 18:00:00 7,0 0,7 27 14 46 25 WSW
20.05.2018 17:00:00 8,8 0,7 28 15 46 25 W
20.05.2018 16:00:00 11,6 1,8 43 23 61 33 SW
20.05.2018 15:00:00 10,9 2,0 32 18 48 26 SSW
20.05.2018 14:00:00 10,7 2,0 29 16 40 22 SSW
20.05.2018 13:00:00 9,2 2,7 34 18 45 25 SSW
20.05.2018 12:00:00 6,5 2,4 41 22 49 27 SSW
20.05.2018 11:00:00 5,9 2,4 34 19 43 23 SSW
20.05.2018 10:00:00 5,4 2,9 36 20 42 23 S
20.05.2018 09:00:00 4,2 2,2 24 13 36 19 S
20.05.2018 08:00:00 4,5 3,0 22 12 34 18 S
20.05.2018 07:00:00 3,1 3,1 30 16 34 18 S
20.05.2018 06:00:00 2,1 2,1 29 16 46 25 SSW
20.05.2018 05:00:00 2,5 2,5 40 22 46 25 S
20.05.2018 04:00:00 2,5 2,5 37 20 45 24 S
20.05.2018 03:00:00 2,2 2,2 28 15 46 25 SSW
20.05.2018 02:00:00 2,3 2,3 35 19 42 23 SW
20.05.2018 01:00:00 2,2 2,2 37 20 45 25 WSW
20.05.2018 00:00:00 2,1 2,1 37 20 52 28 WSW
19.05.2018 23:00:00 2,3 2,3 42 23 50 27 WSW
19.05.2018 22:00:00 2,4 2,4 42 23 54 29 WSW
19.05.2018 21:00:00 2,6 2,6 39 21 52 28 WSW
19.05.2018 20:00:00 2,5 2,5 42 23 53 28 WSW
19.05.2018 19:00:00 2,5 2,5 39 21 45 24 WSW
19.05.2018 18:00:00 2,3 2,3 32 17 44 24 WSW
19.05.2018 17:00:00 2,0 2,0 35 19 57 31 WSW
19.05.2018 16:00:00 2,2 1,5 51 28 58 31 WSW
19.05.2018 15:00:00 2,4 1,2 41 22 57 31 WSW
19.05.2018 14:00:00 2,5 0,6 45 24 54 29 WSW
19.05.2018 13:00:00 2,6 -0,2 49 26 62 33 WSW
19.05.2018 12:00:00 2,5 -1,1 44 24 58 31 WSW

tt = Température de l'air
td = dewpoint
ff = Vitesse du vent
fx = gusts
dd = Direction du vent

stations d'obs. à proximité